createdAt,value
2017-04-02T00:00:07.143Z,71.50
2017-04-02T00:01:06.117Z,72.60
2017-04-02T00:02:05.102Z,72.20
2017-04-02T00:03:04.183Z,72.00
2017-04-02T00:04:03.229Z,71.80
2017-04-02T00:05:01.791Z,71.70
2017-04-02T00:06:00.748Z,72.40
2017-04-02T00:06:59.784Z,72.40
2017-04-02T00:07:58.774Z,72.80
2017-04-02T00:08:57.861Z,72.50
2017-04-02T00:09:56.938Z,72.10
2017-04-02T00:10:55.961Z,71.70
2017-04-02T00:11:54.923Z,72.70
2017-04-02T00:12:53.947Z,72.50
2017-04-02T00:13:53.007Z,72.90
2017-04-02T00:14:52.056Z,72.50
2017-04-02T00:15:51.060Z,72.30
2017-04-02T00:16:50.038Z,72.50
2017-04-02T00:17:49.044Z,72.70
2017-04-02T00:18:48.059Z,72.60
2017-04-02T00:19:46.710Z,72.60
2017-04-02T00:20:45.740Z,73.10
2017-04-02T00:21:44.820Z,73.60
2017-04-02T00:22:43.856Z,73.70
2017-04-02T00:23:42.895Z,73.60
2017-04-02T00:24:41.492Z,73.60
2017-04-02T00:25:40.024Z,73.40
2017-04-02T00:26:39.056Z,74.40
2017-04-02T00:27:38.063Z,73.60
2017-04-02T00:28:37.025Z,73.30
2017-04-02T00:29:36.043Z,73.60
2017-04-02T00:30:35.039Z,73.70
2017-04-02T00:31:33.986Z,73.50
2017-04-02T00:32:32.949Z,74.00
2017-04-02T00:33:31.966Z,74.10
2017-04-02T00:34:30.942Z,74.10
2017-04-02T00:35:29.952Z,73.80
2017-04-02T00:36:28.991Z,74.60
2017-04-02T00:37:28.027Z,74.90
2017-04-02T00:38:27.012Z,74.40
2017-04-02T00:39:26.007Z,75.10
2017-04-02T00:40:24.997Z,75.00
2017-04-02T00:41:24.033Z,75.10
2017-04-02T00:42:23.143Z,75.00
2017-04-02T00:43:22.148Z,75.50
2017-04-02T00:44:21.089Z,75.00
2017-04-02T00:45:20.256Z,75.60
2017-04-02T00:46:19.291Z,75.30
2017-04-02T00:47:17.876Z,75.30
2017-04-02T00:48:16.550Z,74.50
2017-04-02T00:49:15.644Z,74.20
2017-04-02T00:50:15.017Z,74.10
2017-04-02T00:51:14.023Z,74.60
2017-04-02T00:52:13.007Z,74.70
2017-04-02T00:53:12.024Z,74.60
2017-04-02T00:54:11.067Z,74.70
2017-04-02T00:55:10.091Z,74.90
2017-04-02T00:56:09.092Z,74.70
2017-04-02T00:57:08.060Z,74.60
2017-04-02T00:58:07.084Z,75.00
2017-04-02T00:59:06.118Z,75.10
2017-04-02T01:00:05.157Z,75.10
2017-04-02T01:01:03.864Z,75.10
2017-04-02T01:02:02.995Z,75.50
2017-04-02T01:03:02.041Z,75.00
2017-04-02T01:04:01.006Z,75.60
2017-04-02T01:04:59.983Z,76.00
2017-04-02T01:05:59.087Z,75.60
2017-04-02T01:06:57.734Z,75.60
2017-04-02T01:07:56.317Z,75.40
2017-04-02T01:08:55.304Z,75.30
2017-04-02T01:09:54.265Z,75.20
2017-04-02T01:10:53.297Z,75.80
2017-04-02T01:11:52.292Z,75.30
2017-04-02T01:12:51.339Z,75.50
2017-04-02T01:13:50.696Z,75.50
2017-04-02T01:14:49.702Z,75.50
2017-04-02T01:15:48.742Z,75.90
2017-04-02T01:16:47.820Z,76.70
2017-04-02T01:17:46.947Z,76.70
2017-04-02T01:18:45.478Z,76.70
2017-04-02T01:19:44.477Z,76.20
2017-04-02T01:20:43.601Z,76.10
2017-04-02T01:21:42.280Z,76.10
2017-04-02T01:22:41.277Z,75.80
2017-04-02T01:23:40.267Z,75.70
2017-04-02T01:24:39.348Z,76.10
2017-04-02T01:25:38.359Z,76.70
2017-04-02T01:26:37.383Z,77.00
2017-04-02T01:27:36.395Z,77.10
2017-04-02T01:28:35.383Z,76.80
2017-04-02T01:29:34.399Z,76.50
2017-04-02T01:30:33.421Z,76.60
2017-04-02T01:31:32.384Z,76.90
2017-04-02T01:32:31.395Z,76.90
2017-04-02T01:33:30.421Z,77.70
2017-04-02T01:34:29.466Z,77.40
2017-04-02T01:35:28.177Z,77.40
2017-04-02T01:36:27.180Z,77.00
2017-04-02T01:37:26.162Z,76.90
2017-04-02T01:38:25.199Z,77.30
2017-04-02T01:39:23.856Z,77.30
2017-04-02T01:40:22.897Z,76.90
2017-04-02T01:41:21.900Z,76.90
2017-04-02T01:42:21.612Z,76.50
2017-04-02T01:43:20.583Z,76.50
2017-04-02T01:44:19.628Z,76.50
2017-04-02T01:45:18.715Z,76.30
2017-04-02T01:46:17.696Z,76.50
2017-04-02T01:47:16.351Z,76.60
2017-04-02T01:48:15.392Z,77.30
2017-04-02T01:49:14.423Z,78.30
2017-04-02T01:50:17.604Z,77.50
2017-04-02T01:51:16.579Z,77.30
2017-04-02T01:52:15.588Z,77.30
2017-04-02T01:53:14.651Z,77.80
2017-04-02T01:54:13.695Z,78.10
2017-04-02T01:55:12.704Z,77.60
2017-04-02T01:56:12.107Z,77.20
2017-04-02T01:57:11.109Z,77.40
2017-04-02T01:58:10.103Z,77.80
2017-04-02T01:59:09.168Z,78.40
2017-04-02T02:00:08.180Z,78.40
2017-04-02T02:01:07.532Z,78.40
2017-04-02T02:02:06.538Z,77.90
2017-04-02T02:03:05.540Z,78.10
2017-04-02T02:04:04.653Z,77.60
2017-04-02T02:05:03.745Z,77.90
2017-04-02T02:06:02.706Z,78.50
2017-04-02T02:07:01.833Z,78.20
2017-04-02T02:08:00.843Z,78.60
2017-04-02T02:08:59.808Z,78.50
2017-04-02T02:09:58.806Z,78.30
2017-04-02T02:10:57.468Z,78.30
2017-04-02T02:11:56.471Z,78.30
2017-04-02T02:12:55.424Z,78.10
2017-04-02T02:13:54.419Z,78.60
2017-04-02T02:14:53.412Z,78.50
2017-04-02T02:15:52.451Z,77.90
2017-04-02T02:16:51.475Z,78.30
2017-04-02T02:17:50.392Z,78.50
2017-04-02T02:18:49.539Z,78.90
2017-04-02T02:19:48.603Z,78.60
2017-04-02T02:20:47.584Z,79.30
2017-04-02T02:21:46.911Z,79.10
2017-04-02T02:22:45.466Z,79.10
2017-04-02T02:23:44.843Z,79.20
2017-04-02T02:24:44.548Z,79.40
2017-04-02T02:25:43.604Z,79.40
2017-04-02T02:26:42.637Z,79.10
2017-04-02T02:27:41.608Z,79.20
2017-04-02T02:28:40.619Z,79.40
2017-04-02T02:29:39.199Z,79.40
2017-04-02T02:30:38.178Z,79.80
2017-04-02T02:31:37.223Z,80.30
2017-04-02T02:32:36.207Z,80.00
2017-04-02T02:33:35.155Z,80.30
2017-04-02T02:34:34.224Z,80.00
2017-04-02T02:35:32.758Z,80.00
2017-04-02T02:36:32.140Z,80.00
2017-04-02T02:37:31.118Z,79.90
2017-04-02T02:38:30.147Z,80.20
2017-04-02T02:39:29.135Z,80.90
2017-04-02T02:40:28.179Z,81.40
2017-04-02T02:41:27.169Z,81.30
2017-04-02T02:42:26.191Z,81.60
2017-04-02T02:43:25.282Z,81.50
2017-04-02T02:44:24.256Z,81.20
2017-04-02T02:45:23.274Z,81.10
2017-04-02T02:46:21.860Z,81.10
2017-04-02T02:47:20.851Z,80.90
2017-04-02T02:48:19.871Z,81.30
2017-04-02T02:49:18.864Z,81.60
2017-04-02T02:50:17.871Z,82.00
2017-04-02T02:51:16.484Z,82.00
2017-04-02T02:52:15.459Z,81.80
2017-04-02T02:53:14.493Z,81.80
2017-04-02T02:54:13.482Z,82.10
2017-04-02T02:55:12.467Z,81.90
2017-04-02T02:56:11.450Z,82.00
2017-04-02T02:57:10.060Z,82.00
2017-04-02T02:58:09.017Z,82.10
2017-04-02T02:59:08.039Z,82.20
2017-04-02T03:00:07.031Z,82.70
2017-04-02T03:01:05.663Z,82.70
2017-04-02T03:02:04.681Z,81.60
2017-04-02T03:03:03.679Z,81.70
2017-04-02T03:04:02.689Z,81.50
2017-04-02T03:05:01.667Z,81.80
2017-04-02T03:06:00.651Z,82.20
2017-04-02T03:06:59.599Z,81.70
2017-04-02T03:07:58.565Z,81.80
2017-04-02T03:08:57.624Z,82.10
2017-04-02T03:09:56.616Z,82.00
2017-04-02T03:10:55.571Z,81.60
2017-04-02T03:11:54.198Z,81.60
2017-04-02T03:12:53.181Z,81.90
2017-04-02T03:13:52.175Z,82.00
2017-04-02T03:14:50.779Z,82.00
2017-04-02T03:15:49.784Z,81.90
2017-04-02T03:16:49.140Z,81.40
2017-04-02T03:17:47.707Z,81.40
2017-04-02T03:18:46.687Z,81.40
2017-04-02T03:19:45.649Z,81.30
2017-04-02T03:20:44.658Z,81.80
2017-04-02T03:21:43.228Z,81.80
2017-04-02T03:22:41.900Z,81.50
2017-04-02T03:23:40.871Z,81.60
2017-04-02T03:24:39.403Z,81.60
2017-04-02T03:25:38.413Z,81.40
2017-04-02T03:26:37.380Z,81.30
2017-04-02T03:27:36.031Z,81.30
2017-04-02T03:28:35.019Z,81.30
2017-04-02T03:29:33.980Z,81.70
2017-04-02T03:30:32.979Z,81.70
2017-04-02T03:31:31.990Z,81.60
2017-04-02T03:32:30.951Z,81.80
2017-04-02T03:33:29.520Z,81.80
2017-04-02T03:34:28.481Z,81.90
2017-04-02T03:35:27.420Z,82.20
2017-04-02T03:36:26.476Z,82.30
2017-04-02T03:37:25.052Z,82.30
2017-04-02T03:38:24.052Z,83.00
2017-04-02T03:39:23.443Z,82.50
2017-04-02T03:40:22.561Z,82.70
2017-04-02T03:41:21.536Z,82.70
2017-04-02T03:42:20.152Z,82.70
2017-04-02T03:43:19.064Z,82.50
2017-04-02T03:44:18.098Z,82.20
2017-04-02T03:45:17.103Z,82.50
2017-04-02T03:46:16.112Z,82.30
2017-04-02T03:47:15.052Z,82.10
2017-04-02T03:48:14.095Z,81.80
2017-04-02T03:49:13.458Z,81.80
2017-04-02T03:50:12.543Z,81.90
2017-04-02T03:51:11.618Z,82.00
2017-04-02T03:52:10.664Z,82.20
2017-04-02T03:53:09.664Z,82.20
2017-04-02T03:54:08.637Z,82.30
2017-04-02T03:55:07.619Z,82.80
2017-04-02T03:56:06.214Z,82.80
2017-04-02T03:57:05.228Z,82.70
2017-04-02T03:58:04.209Z,82.70
2017-04-02T03:59:03.199Z,82.60
2017-04-02T04:00:02.187Z,82.70
2017-04-02T04:01:01.161Z,82.80
2017-04-02T04:02:00.112Z,82.90
2017-04-02T04:02:59.108Z,83.00
2017-04-02T04:03:58.069Z,83.30
2017-04-02T04:04:57.101Z,83.40
2017-04-02T04:05:56.065Z,83.20
2017-04-02T04:06:55.409Z,83.30
2017-04-02T04:07:54.006Z,83.30
2017-04-02T04:08:53.073Z,83.00
2017-04-02T04:09:52.139Z,82.90
2017-04-02T04:10:51.124Z,82.80
2017-04-02T04:11:49.691Z,82.80
2017-04-02T04:12:48.660Z,82.70
2017-04-02T04:13:47.252Z,82.80
2017-04-02T04:14:46.280Z,83.30
2017-04-02T04:15:45.288Z,82.90
2017-04-02T04:16:44.275Z,82.70
2017-04-02T04:17:43.259Z,82.80
2017-04-02T04:18:42.260Z,82.90
2017-04-02T04:19:41.240Z,82.90
2017-04-02T04:20:40.211Z,83.10
2017-04-02T04:21:38.763Z,83.10
2017-04-02T04:22:37.791Z,83.00
2017-04-02T04:23:36.743Z,83.30
2017-04-02T04:24:35.712Z,83.40
2017-04-02T04:25:34.625Z,83.20
2017-04-02T04:26:33.699Z,83.20
2017-04-02T04:27:32.661Z,83.30
2017-04-02T04:28:31.708Z,83.20
2017-04-02T04:29:30.684Z,83.20
2017-04-02T04:30:29.292Z,83.20
2017-04-02T04:31:28.335Z,83.40
2017-04-02T04:32:27.340Z,83.60
2017-04-02T04:33:26.330Z,83.60
2017-04-02T04:34:25.323Z,84.00
2017-04-02T04:35:24.319Z,83.40
2017-04-02T04:36:23.360Z,83.80
2017-04-02T04:37:22.715Z,84.20
2017-04-02T04:38:21.739Z,83.80
2017-04-02T04:39:20.771Z,84.30
2017-04-02T04:40:19.705Z,84.30
2017-04-02T04:41:18.760Z,84.30
2017-04-02T04:42:17.743Z,84.10
2017-04-02T04:43:16.767Z,84.30
2017-04-02T04:44:15.796Z,84.40
2017-04-02T04:45:14.779Z,84.40
2017-04-02T04:46:13.721Z,84.40
2017-04-02T04:47:12.781Z,84.40
2017-04-02T04:48:11.783Z,84.30
2017-04-02T04:49:10.800Z,84.50
2017-04-02T04:50:09.830Z,84.60
2017-04-02T04:51:08.816Z,85.00
2017-04-02T04:52:07.794Z,84.70
2017-04-02T04:53:06.819Z,85.10
2017-04-02T04:54:05.799Z,84.80
2017-04-02T04:55:04.868Z,84.80
2017-04-02T04:56:03.899Z,84.50
2017-04-02T04:57:02.875Z,84.70
2017-04-02T04:58:01.929Z,84.70
2017-04-02T04:59:00.936Z,84.70
2017-04-02T04:59:59.881Z,84.70
2017-04-02T05:00:58.479Z,84.70
2017-04-02T05:01:57.593Z,85.10
2017-04-02T05:02:56.575Z,85.30
2017-04-02T05:03:55.517Z,85.20
2017-04-02T05:04:54.564Z,85.30
2017-04-02T05:05:53.171Z,85.40
2017-04-02T05:06:52.524Z,85.50
2017-04-02T05:07:51.581Z,85.70
2017-04-02T05:08:50.501Z,85.60
2017-04-02T05:09:49.143Z,85.60
2017-04-02T05:10:47.720Z,85.50
2017-04-02T05:11:46.769Z,85.90
2017-04-02T05:12:45.832Z,85.90
2017-04-02T05:13:44.440Z,85.90
2017-04-02T05:14:43.432Z,86.00
2017-04-02T05:15:42.431Z,86.00
2017-04-02T05:16:41.425Z,85.70
2017-04-02T05:17:40.440Z,85.70
2017-04-02T05:18:39.418Z,85.80
2017-04-02T05:19:38.465Z,85.60
2017-04-02T05:20:37.412Z,85.60
2017-04-02T05:21:36.441Z,85.70
2017-04-02T05:22:35.483Z,85.70
2017-04-02T05:23:34.511Z,86.30
2017-04-02T05:24:33.527Z,85.60
2017-04-02T05:25:32.488Z,86.00
2017-04-02T05:26:31.478Z,85.50
2017-04-02T05:27:30.415Z,85.70
2017-04-02T05:28:29.444Z,85.20
2017-04-02T05:29:28.459Z,85.20
2017-04-02T05:30:27.788Z,85.10
2017-04-02T05:31:26.843Z,85.10
2017-04-02T05:32:25.834Z,85.70
2017-04-02T05:33:24.812Z,85.00
2017-04-02T05:34:23.791Z,84.90
2017-04-02T05:35:23.175Z,84.60
2017-04-02T05:36:22.574Z,84.60
2017-04-02T05:37:21.200Z,84.60
2017-04-02T05:38:20.141Z,85.30
2017-04-02T05:39:19.190Z,84.70
2017-04-02T05:40:18.195Z,85.00
2017-04-02T05:41:16.796Z,85.00
2017-04-02T05:42:15.788Z,85.10
2017-04-02T05:43:14.454Z,85.10
2017-04-02T05:44:13.470Z,84.60
2017-04-02T05:45:12.455Z,84.50
2017-04-02T05:46:11.427Z,84.80
2017-04-02T05:47:10.395Z,84.80
2017-04-02T05:48:09.423Z,84.70
2017-04-02T05:49:08.488Z,85.20
2017-04-02T05:50:07.415Z,84.50
2017-04-02T05:51:06.427Z,84.20
2017-04-02T05:52:05.427Z,84.10
2017-04-02T05:53:04.409Z,84.30
2017-04-02T05:54:03.413Z,84.40
2017-04-02T05:55:02.362Z,84.20
2017-04-02T05:56:01.401Z,84.20
2017-04-02T05:57:00.435Z,84.10
2017-04-02T05:57:59.004Z,84.10
2017-04-02T05:58:57.991Z,84.40
2017-04-02T05:59:56.960Z,84.20
2017-04-02T06:00:55.955Z,84.10
2017-04-02T06:01:54.935Z,84.00
2017-04-02T06:02:53.879Z,84.60
2017-04-02T06:03:52.947Z,85.10
2017-04-02T06:04:51.531Z,85.10
2017-04-02T06:05:50.569Z,85.00
2017-04-02T06:06:49.596Z,84.80
2017-04-02T06:07:48.575Z,84.20
2017-04-02T06:08:47.582Z,84.40
2017-04-02T06:09:46.551Z,84.60
2017-04-02T06:10:45.228Z,84.60
2017-04-02T06:11:44.200Z,84.70
2017-04-02T06:12:43.310Z,85.00
2017-04-02T06:13:42.375Z,84.50
2017-04-02T06:14:40.998Z,84.50
2017-04-02T06:15:39.632Z,84.00
2017-04-02T06:16:38.612Z,83.80
2017-04-02T06:17:37.215Z,83.80
2017-04-02T06:18:36.227Z,83.60
2017-04-02T06:19:35.185Z,84.40
2017-04-02T06:20:34.163Z,84.50
2017-04-02T06:21:33.156Z,84.00
2017-04-02T06:22:32.115Z,83.80
2017-04-02T06:23:31.203Z,83.90
2017-04-02T06:24:30.216Z,83.90
2017-04-02T06:25:29.148Z,84.10
2017-04-02T06:26:28.548Z,83.80
2017-04-02T06:27:27.519Z,84.20
2017-04-02T06:28:26.572Z,84.20
2017-04-02T06:29:25.572Z,84.70
2017-04-02T06:30:25.400Z,84.60
2017-04-02T06:31:24.373Z,84.30
2017-04-02T06:32:23.468Z,84.30
2017-04-02T06:33:22.468Z,84.00
2017-04-02T06:34:21.475Z,83.90
2017-04-02T06:35:20.527Z,84.20
2017-04-02T06:36:19.516Z,84.30
2017-04-02T06:37:18.479Z,84.00
2017-04-02T06:38:17.484Z,84.40
2017-04-02T06:39:16.412Z,84.10
2017-04-02T06:40:15.576Z,83.80
2017-04-02T06:41:14.518Z,83.70
2017-04-02T06:42:13.594Z,83.90
2017-04-02T06:43:12.592Z,83.90
2017-04-02T06:44:11.575Z,83.80
2017-04-02T06:45:10.576Z,83.80
2017-04-02T06:46:09.538Z,84.10
2017-04-02T06:47:08.584Z,84.10
2017-04-02T06:48:07.281Z,84.10
2017-04-02T06:49:06.224Z,84.60
2017-04-02T06:50:05.256Z,84.80
2017-04-02T06:51:04.271Z,85.40
2017-04-02T06:52:03.223Z,84.40
2017-04-02T06:53:02.228Z,84.10
2017-04-02T06:54:01.267Z,85.30
2017-04-02T06:55:00.251Z,84.00
2017-04-02T06:55:59.179Z,84.40
2017-04-02T06:56:58.192Z,83.90
2017-04-02T06:57:57.175Z,84.30
2017-04-02T06:58:56.164Z,84.40
2017-04-02T06:59:55.240Z,84.10
2017-04-02T07:00:54.219Z,83.70
2017-04-02T07:01:53.201Z,83.60
2017-04-02T07:02:52.213Z,83.40
2017-04-02T07:03:51.247Z,83.80
2017-04-02T07:04:50.268Z,84.00
2017-04-02T07:05:49.299Z,83.20
2017-04-02T07:06:48.271Z,83.60
2017-04-02T07:07:47.273Z,83.40
2017-04-02T07:08:46.308Z,82.90
2017-04-02T07:09:45.289Z,83.20
2017-04-02T07:10:44.307Z,82.70
2017-04-02T07:11:43.320Z,82.70
2017-04-02T07:12:42.320Z,83.10
2017-04-02T07:13:40.915Z,83.10
2017-04-02T07:14:40.234Z,82.60
2017-04-02T07:15:39.296Z,81.60
2017-04-02T07:16:38.244Z,83.00
2017-04-02T07:17:36.928Z,82.90
2017-04-02T07:18:35.946Z,80.60
2017-04-02T07:19:34.980Z,81.20
2017-04-02T07:20:33.967Z,82.30
2017-04-02T07:21:32.975Z,81.30
2017-04-02T07:22:31.596Z,81.30
2017-04-02T07:23:30.196Z,81.50
2017-04-02T07:24:29.204Z,81.20
2017-04-02T07:25:28.242Z,81.70
2017-04-02T07:26:27.595Z,80.80
2017-04-02T07:27:26.524Z,80.80
2017-04-02T07:28:25.535Z,81.80
2017-04-02T07:29:24.560Z,81.50
2017-04-02T07:30:23.120Z,81.50
2017-04-02T07:31:21.778Z,81.70
2017-04-02T07:32:20.445Z,81.20
2017-04-02T07:33:19.100Z,80.70
2017-04-02T07:34:18.141Z,81.70
2017-04-02T07:35:17.208Z,81.20
2017-04-02T07:36:16.178Z,81.20
2017-04-02T07:37:15.145Z,81.30
2017-04-02T07:38:13.800Z,81.30
2017-04-02T07:39:12.388Z,81.20
2017-04-02T07:40:11.430Z,80.80
2017-04-02T07:41:10.436Z,80.80
2017-04-02T07:42:09.427Z,82.50
2017-04-02T07:43:08.031Z,82.50
2017-04-02T07:44:07.079Z,82.00
2017-04-02T07:45:06.071Z,81.00
2017-04-02T07:46:05.081Z,81.00
2017-04-02T07:47:04.097Z,81.80
2017-04-02T07:48:03.132Z,81.90
2017-04-02T07:49:02.151Z,82.00
2017-04-02T07:50:01.173Z,82.40
2017-04-02T07:51:00.131Z,82.50
2017-04-02T07:51:59.548Z,83.00
2017-04-02T07:52:58.202Z,83.00
2017-04-02T07:53:56.860Z,83.20
2017-04-02T07:54:55.816Z,83.60
2017-04-02T07:55:54.843Z,83.50
2017-04-02T07:56:53.803Z,82.80
2017-04-02T07:57:52.831Z,83.10
2017-04-02T07:58:51.856Z,83.00
2017-04-02T07:59:50.463Z,83.00
2017-04-02T08:00:49.848Z,82.80
2017-04-02T08:01:49.207Z,83.00
2017-04-02T08:02:48.139Z,82.80
2017-04-02T08:03:47.200Z,82.80
2017-04-02T08:04:46.551Z,82.90
2017-04-02T08:05:45.633Z,83.30
2017-04-02T08:06:44.564Z,82.30
2017-04-02T08:07:43.584Z,82.30
2017-04-02T08:08:42.141Z,82.30
2017-04-02T08:09:40.820Z,82.20
2017-04-02T08:10:39.791Z,82.50
2017-04-02T08:11:38.828Z,82.20
2017-04-02T08:12:37.410Z,82.30
2017-04-02T08:13:36.479Z,82.90
2017-04-02T08:14:35.523Z,83.00
2017-04-02T08:15:34.587Z,82.90
2017-04-02T08:16:33.568Z,83.50
2017-04-02T08:17:32.597Z,83.30
2017-04-02T08:18:31.644Z,82.60
2017-04-02T08:19:30.684Z,82.40
2017-04-02T08:20:29.748Z,82.40
2017-04-02T08:21:28.763Z,82.30
2017-04-02T08:22:28.235Z,82.80
2017-04-02T08:23:27.946Z,83.10
2017-04-02T08:24:27.009Z,83.20
2017-04-02T08:25:26.006Z,83.90
2017-04-02T08:26:24.959Z,83.80
2017-04-02T08:27:24.019Z,84.00
2017-04-02T08:28:22.672Z,84.00
2017-04-02T08:29:21.679Z,84.20
2017-04-02T08:30:20.264Z,84.20
2017-04-02T08:31:19.296Z,83.80
2017-04-02T08:32:19.031Z,84.10
2017-04-02T08:33:18.040Z,84.10
2017-04-02T08:34:16.657Z,84.10
2017-04-02T08:35:15.405Z,83.60
2017-04-02T08:36:14.404Z,83.60
2017-04-02T08:37:13.027Z,83.60
2017-04-02T08:38:12.007Z,83.20
2017-04-02T08:39:11.012Z,83.60
2017-04-02T08:40:09.615Z,83.60
2017-04-02T08:41:08.276Z,83.00
2017-04-02T08:42:07.283Z,82.40
2017-04-02T08:43:06.389Z,81.50
2017-04-02T08:44:05.389Z,81.60
2017-04-02T08:45:04.607Z,81.80
2017-04-02T08:46:03.632Z,81.60
2017-04-02T08:47:02.680Z,82.00
2017-04-02T08:48:01.251Z,82.00
2017-04-02T08:49:00.603Z,82.10
2017-04-02T08:49:59.604Z,81.20
2017-04-02T08:50:58.631Z,80.80
2017-04-02T08:51:58.033Z,81.50
2017-04-02T08:52:57.057Z,82.20
2017-04-02T08:53:56.608Z,81.50
2017-04-02T08:54:57.689Z,81.50
2017-04-02T08:55:56.699Z,81.40
2017-04-02T08:56:55.303Z,81.40
2017-04-02T08:57:54.364Z,81.30
2017-04-02T08:58:53.416Z,80.80
2017-04-02T08:59:52.443Z,81.30
2017-04-02T09:00:51.504Z,81.60
2017-04-02T09:01:50.558Z,81.30
2017-04-02T09:02:49.633Z,81.20
2017-04-02T09:03:48.662Z,80.50
2017-04-02T09:04:47.740Z,81.40
2017-04-02T09:05:46.313Z,81.40
2017-04-02T09:06:45.450Z,81.30
2017-04-02T09:07:44.477Z,81.00
2017-04-02T09:08:43.507Z,81.30
2017-04-02T09:09:42.532Z,81.40
2017-04-02T09:10:41.518Z,81.00
2017-04-02T09:11:40.606Z,80.40
2017-04-02T09:12:39.620Z,79.20
2017-04-02T09:13:38.629Z,78.70
2017-04-02T09:14:37.648Z,79.70
2017-04-02T09:15:36.645Z,80.20
2017-04-02T09:16:36.077Z,80.40
2017-04-02T09:17:34.650Z,80.40
2017-04-02T09:18:33.284Z,80.00
2017-04-02T09:19:32.275Z,79.30
2017-04-02T09:20:31.278Z,78.80
2017-04-02T09:21:30.280Z,78.60
2017-04-02T09:22:29.719Z,78.80
2017-04-02T09:23:28.688Z,78.70
2017-04-02T09:24:27.727Z,79.40
2017-04-02T09:25:26.793Z,79.10
2017-04-02T09:26:26.412Z,78.80
2017-04-02T09:27:25.379Z,78.70
2017-04-02T09:28:24.491Z,78.70
2017-04-02T09:29:23.479Z,79.80
2017-04-02T09:30:22.164Z,79.70
2017-04-02T09:31:21.232Z,77.20
2017-04-02T09:32:20.578Z,77.00
2017-04-02T09:33:19.224Z,76.90
2017-04-02T09:34:18.218Z,75.40
2017-04-02T09:35:17.693Z,75.50
2017-04-02T09:36:16.313Z,75.50
2017-04-02T09:37:15.330Z,76.20
2017-04-02T09:38:14.368Z,75.70
2017-04-02T09:39:12.969Z,75.70
2017-04-02T09:40:12.322Z,75.20
2017-04-02T09:41:11.367Z,75.20
2017-04-02T09:42:10.392Z,75.30
2017-04-02T09:43:09.380Z,75.10
2017-04-02T09:44:08.416Z,75.90
2017-04-02T09:45:07.423Z,76.80
2017-04-02T09:46:06.458Z,76.80
2017-04-02T09:47:05.611Z,76.90
2017-04-02T09:48:04.695Z,77.00
2017-04-02T09:49:03.665Z,75.30
2017-04-02T09:50:02.687Z,75.10
2017-04-02T09:51:01.687Z,74.90
2017-04-02T09:52:00.674Z,75.10
2017-04-02T09:53:00.004Z,74.60
2017-04-02T09:53:59.024Z,74.90
2017-04-02T09:54:58.122Z,75.30
2017-04-02T09:55:57.108Z,75.50
2017-04-02T09:56:56.099Z,75.10
2017-04-02T09:57:55.094Z,76.00
2017-04-02T09:58:54.176Z,75.50
2017-04-02T09:59:53.225Z,75.00
2017-04-02T10:00:52.240Z,74.30
2017-04-02T10:01:51.224Z,75.40
2017-04-02T10:02:49.864Z,75.30
2017-04-02T10:03:48.900Z,74.60
2017-04-02T10:04:47.904Z,74.70
2017-04-02T10:05:46.968Z,75.40
2017-04-02T10:06:45.593Z,75.40
2017-04-02T10:07:44.138Z,74.30
2017-04-02T10:08:43.171Z,74.70
2017-04-02T10:09:42.164Z,74.00
2017-04-02T10:10:41.198Z,74.00
2017-04-02T10:11:40.231Z,74.30
2017-04-02T10:12:39.287Z,74.70
2017-04-02T10:13:37.869Z,74.70
2017-04-02T10:14:36.924Z,74.80
2017-04-02T10:15:35.968Z,75.00
2017-04-02T10:16:34.942Z,74.00
2017-04-02T10:17:34.017Z,73.30
2017-04-02T10:18:33.022Z,74.00
2017-04-02T10:19:32.019Z,73.20
2017-04-02T10:20:31.028Z,72.20
2017-04-02T10:21:30.012Z,72.00
2017-04-02T10:22:29.074Z,72.30
2017-04-02T10:23:28.104Z,72.40
2017-04-02T10:24:27.093Z,72.70
2017-04-02T10:25:25.663Z,72.70
2017-04-02T10:26:24.689Z,73.20
2017-04-02T10:27:23.772Z,73.10
2017-04-02T10:28:22.743Z,73.40
2017-04-02T10:29:21.756Z,73.00
2017-04-02T10:30:21.064Z,72.90
2017-04-02T10:31:20.117Z,74.90
2017-04-02T10:32:19.115Z,73.20
2017-04-02T10:33:18.173Z,73.00
2017-04-02T10:34:17.164Z,73.00
2017-04-02T10:35:15.819Z,73.00
2017-04-02T10:36:14.815Z,73.60
2017-04-02T10:37:13.812Z,73.30
2017-04-02T10:38:12.746Z,73.20
2017-04-02T10:39:11.792Z,72.70
2017-04-02T10:40:10.791Z,73.30
2017-04-02T10:41:09.800Z,72.40
2017-04-02T10:42:08.818Z,72.40
2017-04-02T10:43:08.226Z,72.60
2017-04-02T10:44:06.831Z,72.60
2017-04-02T10:45:05.823Z,73.00
2017-04-02T10:46:04.820Z,72.70
2017-04-02T10:47:03.837Z,73.20
2017-04-02T10:48:02.444Z,73.20
2017-04-02T10:49:01.452Z,72.40
2017-04-02T10:50:00.139Z,72.40
2017-04-02T10:50:59.225Z,73.20
2017-04-02T10:51:58.251Z,73.50
2017-04-02T10:52:57.249Z,72.20
2017-04-02T10:53:55.941Z,72.20
2017-04-02T10:54:54.467Z,71.80
2017-04-02T10:55:53.129Z,72.00
2017-04-02T10:56:52.254Z,72.60
2017-04-02T10:57:51.267Z,72.70
2017-04-02T10:58:50.283Z,73.70
2017-04-02T10:59:49.307Z,71.20
2017-04-02T11:00:48.309Z,73.90
2017-04-02T11:01:47.376Z,73.40
2017-04-02T11:02:45.956Z,73.40
2017-04-02T11:03:45.085Z,72.90
2017-04-02T11:04:44.532Z,73.00
2017-04-02T11:05:43.584Z,73.40
2017-04-02T11:06:42.571Z,73.10
2017-04-02T11:07:41.633Z,72.30
2017-04-02T11:08:40.621Z,72.30
2017-04-02T11:09:39.599Z,72.80
2017-04-02T11:10:38.670Z,72.40
2017-04-02T11:11:37.672Z,72.00
2017-04-02T11:12:36.305Z,72.00
2017-04-02T11:13:35.299Z,72.80
2017-04-02T11:14:33.927Z,72.60
2017-04-02T11:15:32.976Z,72.60
2017-04-02T11:16:31.983Z,73.30
2017-04-02T11:17:30.555Z,73.30
2017-04-02T11:18:29.565Z,72.70
2017-04-02T11:19:28.587Z,73.00
2017-04-02T11:20:27.996Z,73.60
2017-04-02T11:21:27.376Z,72.90
2017-04-02T11:22:26.487Z,72.10
2017-04-02T11:23:25.507Z,72.10
2017-04-02T11:24:24.470Z,71.70
2017-04-02T11:25:23.508Z,73.70
2017-04-02T11:26:22.567Z,72.10
2017-04-02T11:27:21.620Z,71.40
2017-04-02T11:28:20.683Z,71.50
2017-04-02T11:29:19.676Z,71.30
2017-04-02T11:30:18.735Z,70.60
2017-04-02T11:31:17.754Z,71.50
2017-04-02T11:32:16.527Z,71.50
2017-04-02T11:33:15.560Z,71.70
2017-04-02T11:34:14.549Z,71.90
2017-04-02T11:35:13.584Z,71.90
2017-04-02T11:36:12.639Z,71.80
2017-04-02T11:37:11.213Z,71.80
2017-04-02T11:38:10.985Z,72.80
2017-04-02T11:39:10.011Z,70.50
2017-04-02T11:40:09.381Z,70.90
2017-04-02T11:41:08.405Z,71.00
2017-04-02T11:42:07.328Z,71.10
2017-04-02T11:43:05.995Z,71.10
2017-04-02T11:44:04.592Z,70.80
2017-04-02T11:45:03.599Z,71.80
2017-04-02T11:46:02.653Z,72.40
2017-04-02T11:47:01.643Z,71.30
2017-04-02T11:48:00.625Z,71.50
2017-04-02T11:48:59.679Z,71.90
2017-04-02T11:49:58.625Z,73.00
2017-04-02T11:50:57.659Z,73.00
2017-04-02T11:51:56.264Z,73.00
2017-04-02T11:52:55.276Z,69.80
2017-04-02T11:53:54.263Z,70.60
2017-04-02T11:54:53.287Z,69.60
2017-04-02T11:55:52.291Z,69.90
2017-04-02T11:56:51.321Z,70.10
2017-04-02T11:57:49.927Z,70.00
2017-04-02T11:58:48.972Z,70.50
2017-04-02T11:59:47.981Z,70.20
2017-04-02T12:00:46.591Z,70.20
2017-04-02T12:01:45.672Z,70.90
2017-04-02T12:02:44.657Z,70.70
2017-04-02T12:03:43.643Z,70.80
2017-04-02T12:04:42.696Z,71.80
2017-04-02T12:05:41.704Z,71.10
2017-04-02T12:06:40.655Z,71.00
2017-04-02T12:07:39.843Z,70.30
2017-04-02T12:08:38.848Z,71.10
2017-04-02T12:09:37.852Z,70.10
2017-04-02T12:10:36.880Z,69.20
2017-04-02T12:11:36.745Z,68.60
2017-04-02T12:12:35.763Z,68.80
2017-04-02T12:13:34.783Z,69.30
2017-04-02T12:14:33.779Z,70.60
2017-04-02T12:15:32.820Z,71.90
2017-04-02T12:16:31.891Z,69.00
2017-04-02T12:17:30.472Z,69.00
2017-04-02T12:18:29.503Z,69.20
2017-04-02T12:19:28.107Z,69.20
2017-04-02T12:20:27.096Z,70.60
2017-04-02T12:21:26.136Z,70.90
2017-04-02T12:22:25.292Z,70.80
2017-04-02T12:23:24.344Z,71.10
2017-04-02T12:24:23.353Z,70.50
2017-04-02T12:25:22.324Z,69.90
2017-04-02T12:26:21.393Z,70.60
2017-04-02T12:27:20.010Z,70.60
2017-04-02T12:28:19.079Z,70.20
2017-04-02T12:29:18.080Z,70.00
2017-04-02T12:30:17.111Z,70.90
2017-04-02T12:31:16.125Z,69.90
2017-04-02T12:32:15.124Z,70.40
2017-04-02T12:33:14.188Z,70.30
2017-04-02T12:34:12.864Z,70.30
2017-04-02T12:35:11.961Z,70.20
2017-04-02T12:36:11.025Z,70.30
2017-04-02T12:37:10.096Z,70.30
2017-04-02T12:38:09.126Z,70.30
2017-04-02T12:39:08.225Z,69.90